Time;durP1;ratioP1;P1;durP2;ratioP2;P2;SDS_P1;SDS_P2;PMS_P1;PMS_P2;Temp;Humidity;BMP_temperature;BMP_pressure;BME280_temperature;BME280_humidity;BME280_pressure;Samples;Min_cycle;Max_cycle;Signal;HPM_P1;HPM_P2
2021/09/09 00:00:33;;;;;;;10.18;6.25;;;16.20;99.90;;;;;;1976237;72;21067;-75
2021/09/09 00:02:59;;;;;;;7.08;6.37;;;16.20;99.90;;;;;;1981113;72;21023;-75
2021/09/09 00:05:25;;;;;;;10.95;6.42;;;16.20;99.90;;;;;;1973874;72;21138;-76
2021/09/09 00:07:51;;;;;;;7.08;6.33;;;16.20;99.90;;;;;;1974164;72;21046;-75
2021/09/09 00:10:17;;;;;;;11.08;6.33;;;16.20;99.90;;;;;;1979837;72;21051;-74
2021/09/09 00:12:44;;;;;;;12.65;6.33;;;16.30;99.90;;;;;;1974153;72;21063;-74
2021/09/09 00:15:10;;;;;;;7.72;5.65;;;16.30;99.90;;;;;;1974426;73;21051;-74
2021/09/09 00:17:36;;;;;;;9.90;5.78;;;16.20;99.90;;;;;;1968039;72;21159;-74
2021/09/09 00:20:02;;;;;;;15.35;6.62;;;16.30;99.90;;;;;;1976559;72;21055;-74
2021/09/09 00:22:28;;;;;;;11.18;6.67;;;16.10;99.90;;;;;;1974566;73;21142;-74
2021/09/09 00:24:54;;;;;;;8.60;6.78;;;16.10;99.90;;;;;;1966456;72;21058;-75
2021/09/09 00:27:20;;;;;;;9.98;7.05;;;16.20;99.90;;;;;;1971307;72;21059;-75
2021/09/09 00:29:46;;;;;;;9.15;7.00;;;16.10;99.90;;;;;;1977177;72;21159;-75
2021/09/09 00:32:13;;;;;;;10.63;6.83;;;16.10;99.90;;;;;;1968129;72;21035;-74
2021/09/09 00:34:39;;;;;;;12.03;7.92;;;16.00;99.90;;;;;;1974541;73;21048;-76
2021/09/09 00:37:05;;;;;;;12.75;7.35;;;16.00;99.90;;;;;;1970813;72;21194;-76
2021/09/09 00:39:31;;;;;;;9.25;6.67;;;16.00;99.90;;;;;;1967521;72;21059;-75
2021/09/09 00:41:57;;;;;;;10.08;6.97;;;16.00;99.90;;;;;;1974589;73;21036;-76
2021/09/09 00:44:23;;;;;;;10.95;7.42;;;16.10;99.90;;;;;;1974421;72;21117;-75
2021/09/09 00:46:49;;;;;;;8.90;7.40;;;16.10;99.90;;;;;;1977106;72;21120;-75
2021/09/09 00:49:15;;;;;;;9.18;6.92;;;16.00;99.90;;;;;;1967088;72;21036;-75
2021/09/09 00:51:42;;;;;;;8.95;7.35;;;16.00;99.90;;;;;;1976787;72;21050;-75
2021/09/09 00:54:08;;;;;;;9.05;7.25;;;16.00;99.90;;;;;;1974279;72;21066;-75
2021/09/09 00:56:34;;;;;;;14.30;7.67;;;15.90;99.90;;;;;;1964419;72;21061;-75
2021/09/09 00:59:00;;;;;;;9.28;6.80;;;15.90;99.90;;;;;;1980128;72;21044;-75
2021/09/09 01:01:26;;;;;;;10.00;7.40;;;15.80;99.90;;;;;;1977221;72;21132;-75
2021/09/09 01:03:52;;;;;;;9.90;7.50;;;15.80;99.90;;;;;;1971196;72;21056;-74
2021/09/09 01:06:18;;;;;;;10.70;7.33;;;15.80;99.90;;;;;;1974425;72;21507;-75
2021/09/09 01:08:44;;;;;;;9.68;7.55;;;15.70;99.90;;;;;;1974498;73;21493;-75
2021/09/09 01:11:11;;;;;;;8.35;7.28;;;15.70;99.90;;;;;;1974550;73;21523;-75
2021/09/09 01:13:37;;;;;;;9.30;7.33;;;15.70;99.90;;;;;;1974716;73;21448;-76
2021/09/09 01:16:04;;;;;;;10.20;7.22;;;15.60;99.90;;;;;;1971167;72;21501;-75
2021/09/09 01:18:30;;;;;;;11.65;7.10;;;15.60;99.90;;;;;;1968135;72;21039;-75
2021/09/09 01:20:56;;;;;;;13.15;7.72;;;15.60;99.90;;;;;;1973512;72;21102;-75
2021/09/09 01:23:22;;;;;;;9.33;7.47;;;15.60;99.90;;;;;;1973414;72;21063;-76
2021/09/09 01:25:48;;;;;;;15.28;8.03;;;15.50;99.90;;;;;;1974442;73;21109;-76
2021/09/09 01:28:14;;;;;;;10.80;7.25;;;15.50;99.90;;;;;;1974527;73;21076;-76
2021/09/09 01:30:40;;;;;;;11.40;7.95;;;15.50;99.90;;;;;;1972712;72;21059;-76
2021/09/09 01:33:07;;;;;;;16.48;7.62;;;15.40;99.90;;;;;;1965654;72;21116;-74
2021/09/09 01:35:33;;;;;;;9.95;7.75;;;15.50;99.90;;;;;;1991598;72;21020;-75
2021/09/09 01:37:59;;;;;;;8.65;7.45;;;15.40;99.90;;;;;;1972242;72;21054;-76
2021/09/09 01:40:25;;;;;;;10.18;7.72;;;15.50;99.90;;;;;;1985064;72;21078;-76
2021/09/09 01:42:51;;;;;;;9.25;7.62;;;15.50;99.90;;;;;;1978340;72;21066;-75
2021/09/09 01:45:17;;;;;;;13.20;8.25;;;15.40;99.90;;;;;;1975805;72;21024;-76
2021/09/09 01:47:43;;;;;;;11.03;7.97;;;15.40;99.90;;;;;;1991477;72;21045;-76
2021/09/09 01:50:09;;;;;;;9.83;7.40;;;15.50;99.90;;;;;;1969459;72;21064;-75
2021/09/09 01:52:36;;;;;;;9.15;7.90;;;15.40;99.90;;;;;;1970646;72;21098;-76
2021/09/09 01:55:02;;;;;;;10.28;7.90;;;15.40;99.90;;;;;;1973441;72;21130;-76
2021/09/09 01:57:28;;;;;;;10.98;7.75;;;15.40;99.90;;;;;;1986041;72;21120;-76
2021/09/09 01:59:56;;;;;;;12.47;8.10;;;15.40;99.90;;;;;;1976063;72;21116;-75
2021/09/09 02:02:22;;;;;;;11.75;8.40;;;15.40;99.90;;;;;;1972402;72;21448;-75
2021/09/09 02:04:48;;;;;;;11.63;8.38;;;15.30;99.90;;;;;;1971721;72;21432;-75
2021/09/09 02:07:14;;;;;;;9.25;7.70;;;15.50;99.90;;;;;;1974517;73;21533;-75
2021/09/09 02:09:40;;;;;;;9.65;7.97;;;15.40;99.90;;;;;;1974240;72;21507;-75
2021/09/09 02:12:06;;;;;;;9.10;7.83;;;15.40;99.90;;;;;;1971714;72;21563;-75
2021/09/09 02:14:32;;;;;;;13.30;7.87;;;15.30;99.90;;;;;;1977115;72;21460;-76
2021/09/09 02:16:58;;;;;;;11.53;8.03;;;15.40;99.90;;;;;;1983117;72;21109;-76
2021/09/09 02:19:25;;;;;;;12.15;7.72;;;15.40;99.90;;;;;;1984212;72;21054;-75
2021/09/09 02:21:51;;;;;;;10.23;8.00;;;15.30;99.90;;;;;;1976858;72;21024;-75
2021/09/09 02:24:17;;;;;;;11.90;7.33;;;15.30;99.90;;;;;;1974280;72;21071;-75
2021/09/09 02:26:43;;;;;;;9.98;7.62;;;15.30;99.90;;;;;;1970757;72;21129;-75
2021/09/09 02:29:09;;;;;;;9.90;7.62;;;15.20;99.90;;;;;;1968880;72;21071;-75
2021/09/09 02:31:35;;;;;;;13.15;7.55;;;15.20;99.90;;;;;;1974913;72;21027;-75
2021/09/09 02:34:01;;;;;;;9.65;7.22;;;15.10;99.90;;;;;;1971564;72;21137;-75
2021/09/09 02:36:28;;;;;;;13.18;7.75;;;15.10;99.90;;;;;;1977452;72;21141;-75
2021/09/09 02:38:55;;;;;;;11.03;7.65;;;15.10;99.90;;;;;;1974376;72;21067;-75
2021/09/09 02:41:21;;;;;;;13.65;8.65;;;15.10;99.90;;;;;;1974373;73;21059;-75
2021/09/09 02:43:47;;;;;;;10.70;7.70;;;15.00;99.90;;;;;;1974337;72;21179;-75
2021/09/09 02:46:13;;;;;;;11.33;8.00;;;15.10;99.90;;;;;;1970677;72;21140;-75
2021/09/09 02:48:39;;;;;;;8.80;7.83;;;15.00;99.90;;;;;;1974397;72;21059;-75
2021/09/09 02:51:05;;;;;;;9.80;7.45;;;15.00;99.90;;;;;;1967094;72;21044;-75
2021/09/09 02:53:31;;;;;;;9.40;7.42;;;15.00;99.90;;;;;;1976473;72;21052;-76
2021/09/09 02:55:57;;;;;;;10.88;8.20;;;15.00;99.90;;;;;;1986332;72;21054;-76
2021/09/09 02:58:23;;;;;;;9.30;7.62;;;14.90;99.90;;;;;;1975354;72;21129;-75
2021/09/09 03:00:50;;;;;;;10.72;7.87;;;14.80;99.90;;;;;;1959990;72;21023;-75
2021/09/09 03:03:16;;;;;;;10.75;8.45;;;14.80;99.90;;;;;;1969352;72;21046;-75
2021/09/09 03:05:42;;;;;;;11.70;8.13;;;14.80;99.90;;;;;;1976331;72;21068;-75
2021/09/09 03:08:08;;;;;;;14.75;8.40;;;14.80;99.90;;;;;;1961030;72;21050;-75
2021/09/09 03:10:34;;;;;;;10.72;8.18;;;14.80;99.90;;;;;;1973699;72;21121;-75
2021/09/09 03:13:00;;;;;;;13.10;8.73;;;14.80;99.90;;;;;;1966563;72;21057;-76
2021/09/09 03:15:26;;;;;;;12.50;8.50;;;14.80;99.90;;;;;;1970253;72;21070;-75
2021/09/09 03:17:52;;;;;;;11.90;8.13;;;14.80;99.90;;;;;;1974383;72;21117;-76
2021/09/09 03:20:19;;;;;;;10.75;8.05;;;14.80;99.90;;;;;;1979311;72;21108;-76
2021/09/09 03:22:45;;;;;;;11.40;8.75;;;14.80;99.90;;;;;;1983649;72;21068;-76
2021/09/09 03:25:11;;;;;;;13.98;8.73;;;14.80;99.90;;;;;;1987266;72;21035;-76
2021/09/09 03:27:37;;;;;;;10.53;7.87;;;14.80;99.90;;;;;;1974382;72;21098;-76
2021/09/09 03:30:03;;;;;;;9.15;8.08;;;14.80;99.90;;;;;;1974395;73;21105;-76
2021/09/09 03:32:29;;;;;;;9.10;8.00;;;14.80;99.90;;;;;;1977975;72;21132;-76
2021/09/09 03:34:55;;;;;;;19.23;8.25;;;14.80;99.90;;;;;;1977436;72;21036;-76
2021/09/09 03:37:21;;;;;;;9.60;7.92;;;14.70;99.90;;;;;;1983433;72;21125;-76
2021/09/09 03:39:48;;;;;;;13.68;9.25;;;14.70;99.90;;;;;;1973412;72;21063;-75
2021/09/09 03:42:14;;;;;;;11.05;7.80;;;14.60;99.90;;;;;;1964806;72;21040;-76
2021/09/09 03:44:40;;;;;;;9.80;7.40;;;14.60;99.90;;;;;;1973079;72;21141;-76
2021/09/09 03:47:06;;;;;;;15.10;8.38;;;14.60;99.90;;;;;;1974456;73;21128;-76
2021/09/09 03:49:32;;;;;;;10.00;7.30;;;14.60;99.90;;;;;;1974436;72;21063;-76
2021/09/09 03:51:58;;;;;;;10.28;7.70;;;14.50;99.90;;;;;;1978376;72;21055;-76
2021/09/09 03:54:24;;;;;;;9.58;7.75;;;14.50;99.90;;;;;;1975569;72;21067;-75
2021/09/09 03:56:51;;;;;;;12.20;6.85;;;14.50;99.90;;;;;;1977736;72;21121;-75
2021/09/09 03:59:17;;;;;;;9.80;7.45;;;14.50;99.90;;;;;;1973690;72;21099;-75
2021/09/09 04:01:43;;;;;;;10.45;7.28;;;14.40;99.90;;;;;;1974343;72;21067;-75
2021/09/09 04:04:09;;;;;;;9.58;7.45;;;14.40;99.90;;;;;;1977126;72;21136;-75
2021/09/09 04:06:35;;;;;;;10.50;8.35;;;14.40;99.90;;;;;;1971056;72;21046;-76
2021/09/09 04:09:01;;;;;;;10.58;8.13;;;14.40;99.90;;;;;;1983818;72;21054;-75
2021/09/09 04:11:27;;;;;;;12.55;8.13;;;14.40;99.90;;;;;;1970854;72;21043;-76
2021/09/09 04:13:53;;;;;;;9.03;7.50;;;14.40;99.90;;;;;;1981573;72;21054;-75
2021/09/09 04:16:19;;;;;;;11.10;7.97;;;14.40;99.90;;;;;;1976448;72;21141;-75
2021/09/09 04:18:46;;;;;;;8.28;7.40;;;14.30;99.90;;;;;;1972634;72;21120;-75
2021/09/09 04:21:12;;;;;;;11.65;8.13;;;14.30;99.90;;;;;;1978079;72;21050;-75
2021/09/09 04:23:38;;;;;;;11.63;8.15;;;14.30;99.90;;;;;;1974340;72;21141;-76
2021/09/09 04:26:04;;;;;;;10.30;7.80;;;14.30;99.90;;;;;;1973945;72;21055;-76
2021/09/09 04:28:30;;;;;;;13.88;8.00;;;14.30;99.90;;;;;;1971318;72;21096;-75
2021/09/09 04:30:56;;;;;;;12.58;9.03;;;14.20;99.90;;;;;;1968850;72;21064;-75
2021/09/09 04:33:22;;;;;;;11.53;8.78;;;14.20;99.90;;;;;;1974488;73;21101;-75
2021/09/09 04:35:48;;;;;;;11.40;8.80;;;14.20;99.90;;;;;;1973775;72;21012;-74
2021/09/09 04:38:15;;;;;;;14.18;8.83;;;14.20;99.90;;;;;;1977509;72;21178;-75
2021/09/09 04:40:41;;;;;;;13.28;9.10;;;14.20;99.90;;;;;;1974386;72;21059;-76
2021/09/09 04:43:07;;;;;;;11.53;9.38;;;14.10;99.90;;;;;;1967593;72;21137;-75
2021/09/09 04:45:33;;;;;;;11.30;8.48;;;14.20;99.90;;;;;;1975780;72;21065;-75
2021/09/09 04:48:00;;;;;;;13.13;9.78;;;14.10;99.90;;;;;;1975839;72;21055;-75
2021/09/09 04:50:27;;;;;;;15.28;9.90;;;14.20;99.90;;;;;;1974417;72;21109;-74
2021/09/09 04:52:53;;;;;;;18.27;10.23;;;14.10;99.90;;;;;;1970669;72;21144;-77
2021/09/09 04:55:19;;;;;;;13.98;9.83;;;14.20;99.90;;;;;;1974310;72;21116;-77
2021/09/09 04:57:45;;;;;;;13.30;9.03;;;14.20;99.90;;;;;;1974363;72;21058;-77
2021/09/09 05:00:11;;;;;;;19.82;9.80;;;14.20;99.90;;;;;;1972586;72;21123;-74
2021/09/09 05:02:38;;;;;;;13.28;9.50;;;14.20;99.90;;;;;;1974030;72;21063;-74
2021/09/09 05:05:04;;;;;;;12.30;9.53;;;14.30;99.90;;;;;;1974454;72;21027;-77
2021/09/09 05:07:30;;;;;;;16.52;9.05;;;14.30;99.90;;;;;;1968014;72;21125;-77
2021/09/09 05:09:56;;;;;;;13.95;9.18;;;14.40;99.90;;;;;;1971611;72;21055;-77
2021/09/09 05:12:22;;;;;;;13.13;8.98;;;14.40;99.90;;;;;;1980662;72;21062;-77
2021/09/09 05:14:48;;;;;;;14.47;9.83;;;14.40;99.90;;;;;;1971472;72;21102;-76
2021/09/09 05:17:14;;;;;;;13.13;9.65;;;14.40;99.90;;;;;;1973731;72;21067;-77
2021/09/09 05:19:41;;;;;;;11.97;8.60;;;14.40;99.90;;;;;;1977010;72;21031;-77
2021/09/09 05:22:07;;;;;;;10.75;8.38;;;14.40;99.90;;;;;;1987404;72;21062;-75
2021/09/09 05:24:33;;;;;;;12.85;8.78;;;14.40;99.90;;;;;;1968939;72;21044;-75
2021/09/09 05:26:59;;;;;;;12.07;8.63;;;14.40;99.90;;;;;;1976478;72;21056;-75
2021/09/09 05:29:25;;;;;;;11.97;8.90;;;14.40;99.90;;;;;;1972409;72;21067;-76
2021/09/09 05:31:51;;;;;;;12.90;8.48;;;14.40;99.90;;;;;;1968284;72;21112;-75
2021/09/09 05:34:17;;;;;;;12.93;8.60;;;14.40;99.90;;;;;;1986237;72;21074;-75
2021/09/09 05:36:43;;;;;;;11.65;9.20;;;14.40;99.90;;;;;;1982343;72;21039;-75
2021/09/09 05:39:10;;;;;;;25.95;8.63;;;14.50;99.90;;;;;;1969101;72;21054;-75
2021/09/09 05:41:36;;;;;;;16.15;8.90;;;14.60;99.90;;;;;;1975790;72;21466;-76
2021/09/09 05:44:02;;;;;;;14.45;8.85;;;14.70;99.90;;;;;;1977311;72;21456;-75
2021/09/09 05:46:28;;;;;;;12.50;8.63;;;14.70;99.90;;;;;;1974350;73;21527;-75
2021/09/09 05:48:54;;;;;;;16.67;9.48;;;14.70;99.90;;;;;;1974340;72;21417;-75
2021/09/09 05:51:20;;;;;;;10.65;8.38;;;14.80;99.90;;;;;;1967225;72;21555;-75
2021/09/09 05:53:46;;;;;;;18.20;9.80;;;14.80;99.90;;;;;;1983400;72;21494;-75
2021/09/09 05:56:12;;;;;;;16.05;9.13;;;14.80;99.90;;;;;;1976399;72;21602;-76
2021/09/09 05:58:39;;;;;;;18.02;10.23;;;14.80;99.90;;;;;;1977987;72;21569;-75
2021/09/09 06:01:05;;;;;;;11.08;8.18;;;15.00;99.90;;;;;;1960626;72;21467;-76
2021/09/09 06:03:31;;;;;;;14.87;9.05;;;15.10;99.90;;;;;;1975261;72;21615;-75
2021/09/09 06:06:07;;;;;;;16.42;8.68;;;15.20;99.90;;;;;;1977207;72;21048;-75
2021/09/09 06:08:31;;;;;;;13.90;9.03;;;15.40;99.90;;;;;;1971763;72;21092;-76
2021/09/09 06:10:57;;;;;;;8.80;7.42;;;15.60;99.90;;;;;;1976385;72;21060;-76
2021/09/09 06:13:23;;;;;;;13.30;8.63;;;15.70;99.90;;;;;;1966995;72;21063;-75
2021/09/09 06:15:50;;;;;;;14.35;7.87;;;15.80;99.90;;;;;;1974351;72;21132;-76
2021/09/09 06:18:16;;;;;;;9.65;7.87;;;15.80;99.90;;;;;;1974311;73;21072;-76
2021/09/09 06:20:42;;;;;;;11.43;7.83;;;15.90;99.90;;;;;;1969979;72;21125;-76
2021/09/09 06:23:08;;;;;;;13.13;7.92;;;16.10;99.90;;;;;;1974455;72;21066;-75
2021/09/09 06:25:34;;;;;;;9.78;8.18;;;16.20;99.90;;;;;;1964213;72;21070;-75
2021/09/09 06:28:00;;;;;;;19.48;9.40;;;16.20;99.90;;;;;;1976685;72;21538;-75
2021/09/09 06:30:26;;;;;;;9.55;8.05;;;16.40;99.90;;;;;;1974252;72;21051;-74
2021/09/09 06:32:52;;;;;;;12.00;8.35;;;16.40;99.90;;;;;;1974521;73;21440;-73
2021/09/09 06:35:19;;;;;;;8.95;7.20;;;16.40;99.90;;;;;;1972103;72;21039;-73
2021/09/09 06:37:46;;;;;;;12.45;8.80;;;16.60;99.90;;;;;;1979471;72;21454;-75
2021/09/09 06:40:12;;;;;;;9.70;8.15;;;16.70;99.90;;;;;;1972774;72;21115;-74
2021/09/09 06:42:39;;;;;;;9.05;8.05;;;16.80;99.90;;;;;;1976923;72;21152;-75
2021/09/09 06:45:05;;;;;;;9.88;8.25;;;16.90;99.90;;;;;;1973402;72;21127;-76
2021/09/09 06:47:32;;;;;;;12.43;8.03;;;17.00;99.90;;;;;;1976797;72;21051;-76
2021/09/09 06:49:58;;;;;;;8.85;7.20;;;17.00;99.90;;;;;;1974114;72;21155;-76
2021/09/09 06:52:24;;;;;;;12.78;7.78;;;17.10;99.90;;;;;;1972886;72;21067;-76
2021/09/09 06:54:50;;;;;;;10.95;8.08;;;17.40;99.90;;;;;;1976034;72;21475;-75
2021/09/09 06:57:16;;;;;;;10.08;8.45;;;17.50;99.90;;;;;;1971966;72;21479;-75
2021/09/09 06:59:42;;;;;;;10.88;8.30;;;17.60;99.90;;;;;;1978714;72;21467;-76
2021/09/09 07:02:08;;;;;;;19.10;9.40;;;17.60;99.90;;;;;;1978246;72;21505;-76
2021/09/09 07:04:35;;;;;;;12.13;8.15;;;17.70;99.90;;;;;;1975967;72;21487;-76
2021/09/09 07:07:01;;;;;;;16.82;8.50;;;17.80;99.90;;;;;;1972137;72;21478;-76
2021/09/09 07:09:27;;;;;;;16.70;9.00;;;18.00;99.90;;;;;;1985855;72;21596;-76
2021/09/09 07:11:53;;;;;;;10.25;8.38;;;18.10;99.90;;;;;;1989104;72;21516;-75
2021/09/09 07:14:19;;;;;;;34.08;9.63;;;18.30;99.90;;;;;;1975733;72;21573;-76
2021/09/09 07:16:46;;;;;;;11.33;8.23;;;18.50;99.90;;;;;;1980626;72;21562;-76
2021/09/09 07:19:13;;;;;;;10.90;8.20;;;18.70;99.90;;;;;;1976707;72;21066;-76
2021/09/09 07:21:39;;;;;;;11.25;8.15;;;19.00;99.90;;;;;;1971914;72;21572;-75
2021/09/09 07:24:05;;;;;;;10.13;7.50;;;19.10;99.90;;;;;;1973457;72;21067;-75
2021/09/09 07:26:32;;;;;;;13.62;8.58;;;19.30;99.90;;;;;;1981586;72;21029;-75
2021/09/09 07:28:58;;;;;;;9.13;7.60;;;19.20;99.90;;;;;;1971121;72;21128;-75
2021/09/09 07:31:24;;;;;;;14.38;8.30;;;19.20;99.90;;;;;;1971250;72;21054;-76
2021/09/09 07:33:50;;;;;;;7.33;6.47;;;19.20;99.90;;;;;;1974528;73;21105;-76
2021/09/09 07:36:16;;;;;;;11.63;7.87;;;19.50;99.90;;;;;;1969167;72;21098;-76
2021/09/09 07:38:42;;;;;;;11.20;6.78;;;19.60;99.90;;;;;;1969331;72;21052;-76
2021/09/09 07:41:08;;;;;;;8.28;6.65;;;19.50;99.90;;;;;;1977749;72;21178;-75
2021/09/09 07:43:34;;;;;;;13.93;7.20;;;19.60;99.90;;;;;;1973456;72;21040;-75
2021/09/09 07:46:01;;;;;;;10.23;7.20;;;19.60;99.90;;;;;;1987426;72;21047;-76
2021/09/09 07:48:28;;;;;;;6.70;6.05;;;19.70;99.90;;;;;;1970607;72;21472;-76
2021/09/09 07:50:54;;;;;;;7.45;5.97;;;20.00;99.90;;;;;;1974390;73;21491;-75
2021/09/09 07:53:20;;;;;;;10.70;6.55;;;20.30;99.90;;;;;;1970048;72;21479;-76
2021/09/09 07:55:46;;;;;;;14.13;7.25;;;20.50;99.90;;;;;;1970546;72;21490;-75
2021/09/09 07:58:13;;;;;;;23.45;6.40;;;20.50;99.90;;;;;;1970552;72;21486;-75
2021/09/09 08:00:39;;;;;;;12.10;5.95;;;20.60;99.90;;;;;;1974544;73;21063;-75
2021/09/09 08:03:05;;;;;;;9.50;5.92;;;21.10;99.90;;;;;;1973216;72;21067;-75
2021/09/09 08:05:31;;;;;;;6.90;5.65;;;21.20;99.90;;;;;;1987718;72;21105;-75
2021/09/09 08:07:58;;;;;;;10.78;6.45;;;21.50;99.90;;;;;;1966094;72;21074;-75
2021/09/09 08:10:24;;;;;;;8.80;5.78;;;21.90;99.90;;;;;;1979230;72;21124;-75
2021/09/09 08:12:50;;;;;;;12.95;5.87;;;21.80;99.90;;;;;;1970826;72;21063;-75
2021/09/09 08:15:16;;;;;;;12.10;6.00;;;22.00;99.90;;;;;;1966308;72;21055;-76
2021/09/09 08:17:42;;;;;;;9.83;4.90;;;22.30;99.90;;;;;;1967950;72;21064;-75
2021/09/09 08:20:08;;;;;;;8.45;5.17;;;22.50;99.90;;;;;;1970888;72;21556;-76
2021/09/09 08:22:34;;;;;;;8.63;5.25;;;22.40;99.90;;;;;;1953969;72;21477;-75
2021/09/09 08:25:00;;;;;;;8.18;5.05;;;22.70;99.90;;;;;;1965065;72;21475;-76
2021/09/09 08:27:30;;;;;;;6.00;4.85;;;22.70;99.90;;;;;;1974304;72;21432;-75
2021/09/09 08:29:54;;;;;;;7.85;4.72;;;22.90;99.90;;;;;;1975962;72;21036;-76
2021/09/09 08:32:20;;;;;;;8.10;4.87;;;23.30;99.90;;;;;;1980615;72;21136;-75
2021/09/09 08:34:47;;;;;;;7.37;5.08;;;23.50;99.90;;;;;;1981522;72;21125;-75
2021/09/09 08:37:13;;;;;;;8.63;4.70;;;23.90;99.90;;;;;;1970972;72;21031;-75
2021/09/09 08:39:39;;;;;;;7.47;4.70;;;24.20;99.90;;;;;;1974664;72;21054;-75
2021/09/09 08:42:05;;;;;;;7.15;4.45;;;24.70;99.90;;;;;;1974580;72;21449;-75
2021/09/09 08:44:31;;;;;;;4.85;4.33;;;24.30;99.90;;;;;;1974620;73;21537;-76
2021/09/09 08:46:58;;;;;;;6.20;4.35;;;24.30;99.90;;;;;;1976768;72;21125;-76
2021/09/09 08:49:24;;;;;;;7.80;4.42;;;24.50;99.90;;;;;;1974228;72;21020;-76
2021/09/09 08:51:50;;;;;;;6.10;4.00;;;24.50;99.90;;;;;;1972008;72;21040;-75
2021/09/09 08:54:16;;;;;;;7.08;4.12;;;25.00;99.90;;;;;;1974563;73;21063;-75
2021/09/09 08:56:43;;;;;;;6.15;4.25;;;25.30;99.90;;;;;;1973044;72;21077;-75
2021/09/09 08:59:09;;;;;;;7.08;4.28;;;25.30;99.90;;;;;;1981672;72;21227;-75
2021/09/09 09:01:35;;;;;;;7.22;4.00;;;25.50;99.90;;;;;;1970881;72;21560;-75
2021/09/09 09:04:06;;;;;;;6.05;4.08;;;26.30;99.90;;;;;;1962688;72;21508;-75
2021/09/09 09:06:30;;;;;;;8.95;3.95;;;25.90;99.90;;;;;;1976576;72;21066;-75
2021/09/09 09:08:56;;;;;;;7.28;4.53;;;25.50;99.90;;;;;;1971456;72;21122;-75
2021/09/09 09:11:22;;;;;;;9.95;4.42;;;25.70;99.90;;;;;;1974241;72;21122;-75
2021/09/09 09:13:48;;;;;;;7.97;4.22;;;25.40;99.90;;;;;;1973705;72;21175;-75
2021/09/09 09:16:15;;;;;;;4.92;3.90;;;25.90;99.90;;;;;;1977848;72;21149;-73
2021/09/09 09:18:41;;;;;;;7.67;3.75;;;26.40;99.90;;;;;;1973649;72;21052;-75
2021/09/09 09:21:07;;;;;;;4.67;3.72;;;27.10;99.90;;;;;;1974266;72;21035;-75
2021/09/09 09:23:33;;;;;;;4.60;3.30;;;26.90;99.90;;;;;;1976587;72;21036;-76
2021/09/09 09:26:01;;;;;;;3.50;3.10;;;27.00;99.90;;;;;;1966922;72;21035;-75
2021/09/09 09:28:27;;;;;;;9.73;3.25;;;27.10;99.90;;;;;;1983428;72;21133;-75
2021/09/09 09:30:53;;;;;;;15.13;3.40;;;26.80;99.90;;;;;;1974547;73;21121;-75
2021/09/09 09:33:19;;;;;;;5.33;3.45;;;26.40;99.90;;;;;;1966973;72;21057;-75
2021/09/09 09:35:46;;;;;;;5.03;3.42;;;26.10;99.90;;;;;;1968800;72;21585;-75
2021/09/09 09:38:12;;;;;;;5.37;3.10;;;25.90;99.90;;;;;;1967283;72;21462;-75
2021/09/09 09:40:49;;;;;;;3.42;2.90;;;25.70;99.90;;;;;;1971219;72;21503;-75
2021/09/09 09:43:06;;;;;;;4.47;3.42;;;26.00;99.90;;;;;;1971424;72;21120;-75
2021/09/09 09:45:32;;;;;;;4.67;3.37;;;26.20;99.90;;;;;;1986073;72;21020;-75
2021/09/09 09:47:58;;;;;;;5.70;3.98;;;26.30;99.90;;;;;;1975090;72;21319;-75
2021/09/09 09:50:24;;;;;;;6.12;3.35;;;26.10;99.90;;;;;;1968947;72;21118;-75
2021/09/09 09:52:50;;;;;;;7.67;3.12;;;25.90;99.90;;;;;;1968382;72;21065;-75
2021/09/09 09:55:16;;;;;;;4.90;3.33;;;25.90;99.90;;;;;;1977069;72;21047;-75
2021/09/09 09:57:42;;;;;;;5.05;3.35;;;26.10;99.90;;;;;;1971670;72;21070;-75
2021/09/09 10:00:08;;;;;;;16.23;3.10;;;26.60;99.90;;;;;;1976480;72;21111;-75
2021/09/09 10:02:35;;;;;;;4.45;2.95;;;27.00;99.90;;;;;;1977622;72;21036;-75
2021/09/09 10:05:01;;;;;;;8.58;3.27;;;27.10;99.90;;;;;;1964823;72;21124;-75
2021/09/09 10:07:27;;;;;;;6.15;3.67;;;27.10;99.90;;;;;;1970006;72;21534;-75
2021/09/09 10:09:53;;;;;;;4.62;3.75;;;27.00;99.90;;;;;;1971036;72;21522;-75
2021/09/09 10:12:23;;;;;;;7.05;3.58;;;27.10;99.90;;;;;;1970219;72;21485;-75
2021/09/09 10:14:47;;;;;;;4.50;3.25;;;26.90;99.90;;;;;;1974415;72;21118;-75
2021/09/09 10:17:14;;;;;;;6.00;3.55;;;26.50;99.90;;;;;;1972663;72;21109;-75
2021/09/09 10:19:40;;;;;;;15.25;3.27;;;26.60;99.90;;;;;;1972166;72;21059;-75
2021/09/09 10:22:06;;;;;;;7.53;3.12;;;26.60;99.90;;;;;;1974343;73;21028;-75
2021/09/09 10:24:33;;;;;;;3.55;3.12;;;27.10;99.90;;;;;;1962516;72;21050;-75
2021/09/09 10:26:59;;;;;;;3.77;3.35;;;27.30;99.90;;;;;;1980810;72;21160;-76
2021/09/09 10:29:25;;;;;;;5.00;3.27;;;27.10;99.90;;;;;;1985050;72;21051;-76
2021/09/09 10:31:51;;;;;;;6.25;4.05;;;27.10;99.90;;;;;;1976558;72;21036;-75
2021/09/09 10:34:17;;;;;;;3.67;3.30;;;26.90;99.90;;;;;;1972727;72;21058;-76
2021/09/09 10:36:44;;;;;;;6.62;3.30;;;27.00;99.90;;;;;;1975653;72;21050;-75
2021/09/09 10:39:10;;;;;;;4.03;3.30;;;26.90;99.90;;;;;;1973895;72;21071;-75
2021/09/09 10:41:36;;;;;;;8.30;3.08;;;27.20;99.90;;;;;;1970463;72;21132;-75
2021/09/09 10:44:02;;;;;;;4.75;3.17;;;27.30;99.90;;;;;;1971915;72;21032;-75
2021/09/09 10:46:28;;;;;;;4.65;2.90;;;27.30;99.90;;;;;;1974453;72;21164;-75
2021/09/09 10:48:54;;;;;;;5.25;3.33;;;26.80;99.90;;;;;;1974505;73;21156;-75
2021/09/09 10:51:21;;;;;;;8.25;3.22;;;27.30;99.90;;;;;;1974454;72;21059;-75
2021/09/09 10:53:47;;;;;;;5.30;2.83;;;27.80;99.90;;;;;;1970704;72;21040;-75
2021/09/09 10:56:13;;;;;;;4.10;3.08;;;28.10;99.90;;;;;;1974367;72;21063;-75
2021/09/09 10:58:39;;;;;;;3.15;2.85;;;27.80;99.90;;;;;;1974354;72;21172;-75
2021/09/09 11:01:08;;;;;;;4.95;2.58;;;28.10;99.90;;;;;;1971358;72;21067;-73
2021/09/09 11:03:35;;;;;;;5.55;2.80;;;28.00;99.90;;;;;;1971005;72;21055;-74
2021/09/09 11:06:01;;;;;;;7.05;2.92;;;27.90;99.90;;;;;;1973816;72;21071;-72
2021/09/09 11:08:28;;;;;;;2.70;2.30;;;27.80;99.90;;;;;;1981929;72;21055;-73
2021/09/09 11:10:54;;;;;;;8.25;2.62;;;28.10;99.90;;;;;;1974511;72;21467;-73
2021/09/09 11:13:20;;;;;;;4.40;2.80;;;28.40;99.90;;;;;;1979178;72;21436;-75
2021/09/09 11:15:47;;;;;;;5.17;2.70;;;28.60;99.90;;;;;;1974393;72;21479;-75
2021/09/09 11:18:13;;;;;;;9.75;2.45;;;28.80;99.90;;;;;;1974546;73;21484;-75
2021/09/09 11:20:39;;;;;;;3.22;2.80;;;29.00;99.90;;;;;;1973221;72;21506;-75
2021/09/09 11:23:05;;;;;;;4.37;2.40;;;28.70;99.90;;;;;;1964373;72;21461;-75
2021/09/09 11:25:31;;;;;;;6.05;2.52;;;29.00;99.90;;;;;;1976415;72;21498;-74
2021/09/09 11:27:57;;;;;;;4.70;2.45;;;29.00;99.90;;;;;;1967289;72;21128;-75
2021/09/09 11:30:23;;;;;;;16.75;2.55;;;29.30;99.90;;;;;;1991313;72;21035;-75
2021/09/09 11:32:49;;;;;;;3.92;2.70;;;29.60;99.90;;;;;;1971778;72;21105;-75
2021/09/09 11:35:16;;;;;;;4.12;2.85;;;29.60;99.90;;;;;;1970609;72;21279;-76
2021/09/09 11:37:42;;;;;;;4.62;2.70;;;30.00;99.90;;;;;;1970885;72;21051;-76
2021/09/09 11:40:08;;;;;;;3.42;3.02;;;29.80;99.90;;;;;;1982239;72;21036;-75
2021/09/09 11:42:34;;;;;;;4.55;2.60;;;30.00;99.90;;;;;;1980639;72;21117;-75
2021/09/09 11:45:02;;;;;;;2.75;2.55;;;29.60;99.90;;;;;;1974346;73;21051;-73
2021/09/09 11:47:28;;;;;;;2.45;2.25;;;29.80;99.90;;;;;;1974380;72;21493;-75
2021/09/09 11:49:55;;;;;;;5.05;2.62;;;29.90;99.90;;;;;;1974169;72;21048;-75
2021/09/09 11:52:21;;;;;;;2.83;2.45;;;29.90;99.90;;;;;;1974437;73;21071;-72
2021/09/09 11:54:47;;;;;;;4.25;2.60;;;30.40;99.90;;;;;;1972091;72;21097;-74
2021/09/09 11:57:13;;;;;;;8.45;2.72;;;30.20;99.90;;;;;;1970326;72;21139;-74
2021/09/09 11:59:39;;;;;;;3.50;2.35;;;30.40;99.90;;;;;;1991400;72;21215;-73
2021/09/09 12:02:06;;;;;;;3.30;2.52;;;30.20;99.90;;;;;;1991536;72;21424;-74
2021/09/09 12:04:32;;;;;;;5.20;2.50;;;29.90;99.90;;;;;;1973928;72;21056;-74
2021/09/09 12:06:58;;;;;;;9.00;2.92;;;30.00;99.90;;;;;;1967562;72;21095;-74
2021/09/09 12:09:25;;;;;;;2.85;2.55;;;30.00;99.90;;;;;;1974347;72;21047;-74
2021/09/09 12:11:51;;;;;;;3.62;2.90;;;30.40;99.90;;;;;;1970496;72;21495;-74
2021/09/09 12:14:17;;;;;;;3.52;2.72;;;30.00;99.90;;;;;;1974646;73;21535;-75
2021/09/09 12:16:43;;;;;;;8.98;2.40;;;30.10;99.90;;;;;;1972789;72;21546;-74
2021/09/09 12:19:14;;;;;;;3.25;2.60;;;29.10;99.90;;;;;;1972346;72;21063;-74
2021/09/09 12:21:37;;;;;;;4.62;2.70;;;28.60;99.90;;;;;;1979327;72;21580;-75
2021/09/09 12:24:06;;;;;;;5.33;3.10;;;28.70;99.90;;;;;;1971088;72;21491;-75
2021/09/09 12:26:32;;;;;;;3.77;2.93;;;29.10;99.90;;;;;;1972823;72;21052;-74
2021/09/09 12:28:59;;;;;;;4.25;2.75;;;29.40;99.90;;;;;;1973450;72;21099;-74
2021/09/09 12:31:25;;;;;;;5.20;2.52;;;29.80;99.90;;;;;;1974371;72;21058;-75
2021/09/09 12:33:51;;;;;;;3.75;2.70;;;30.10;99.90;;;;;;1976787;72;21063;-74
2021/09/09 12:36:20;;;;;;;3.02;2.70;;;30.20;99.90;;;;;;1977502;72;21067;-74